createdAt,value
2018-03-04T00:02:02.712Z,107.35
2018-03-04T00:04:30.197Z,66.68
2018-03-04T00:06:58.060Z,90.82
2018-03-04T00:09:26.316Z,90.60
2018-03-04T00:11:53.807Z,103.25
2018-03-04T00:14:21.655Z,80.30
2018-03-04T00:16:49.129Z,101.40
2018-03-04T00:19:17.433Z,88.22
2018-03-04T00:21:45.253Z,111.97
2018-03-04T00:24:13.499Z,98.22
2018-03-04T00:26:40.992Z,116.07
2018-03-04T00:29:09.572Z,113.93
2018-03-04T00:31:37.828Z,112.88
2018-03-04T00:34:05.308Z,108.60
2018-03-04T00:36:33.888Z,96.20
2018-03-04T00:39:02.144Z,75.22
2018-03-04T00:41:29.700Z,108.68
2018-03-04T00:43:59.028Z,101.30
2018-03-04T00:46:27.288Z,88.55
2018-03-04T00:48:54.803Z,108.57
2018-03-04T00:51:22.615Z,97.72
2018-03-04T00:53:50.899Z,90.68
2018-03-04T00:56:19.144Z,70.07
2018-03-04T00:58:46.956Z,93.15
2018-03-04T01:01:15.190Z,107.50
2018-03-04T01:03:42.678Z,103.55
2018-03-04T01:06:11.351Z,113.93
2018-03-04T01:08:38.825Z,106.90
2018-03-04T01:11:06.340Z,92.28
2018-03-04T01:13:34.336Z,99.20
2018-03-04T01:16:02.634Z,109.87
2018-03-04T01:18:30.151Z,104.07
2018-03-04T01:20:57.912Z,96.93
2018-03-04T01:23:25.404Z,118.00
2018-03-04T01:25:53.653Z,105.03
2018-03-04T01:28:21.555Z,105.82
2018-03-04T01:30:49.145Z,109.60
2018-03-04T01:33:16.723Z,50.25
2018-03-04T01:35:44.575Z,107.75
2018-03-04T01:38:13.167Z,77.10
2018-03-04T01:40:40.639Z,35.72
2018-03-04T01:43:08.134Z,115.62
2018-03-04T01:45:35.646Z,109.57
2018-03-04T01:48:03.194Z,112.03
2018-03-04T01:50:31.030Z,106.70
2018-03-04T01:52:58.511Z,114.95
2018-03-04T01:55:26.081Z,113.30
2018-03-04T01:57:53.587Z,84.32
2018-03-04T02:00:21.084Z,93.00
2018-03-04T02:02:48.636Z,120.35
2018-03-04T02:05:16.169Z,44.53
2018-03-04T02:07:44.460Z,110.78
2018-03-04T02:10:11.937Z,108.18
2018-03-04T02:12:39.697Z,122.28
2018-03-04T02:15:07.163Z,117.43
2018-03-04T02:17:34.648Z,104.20
2018-03-04T02:20:02.543Z,111.97
2018-03-04T02:22:30.828Z,91.03
2018-03-04T02:24:58.320Z,106.37
2018-03-04T02:27:25.839Z,90.75
2018-03-04T02:29:54.095Z,118.18
2018-03-04T02:32:21.605Z,90.32
2018-03-04T02:34:49.432Z,115.15
2018-03-04T02:37:17.692Z,117.05
2018-03-04T02:39:45.304Z,101.43
2018-03-04T02:42:12.829Z,116.95
2018-03-04T02:44:40.333Z,114.40
2018-03-04T02:47:07.838Z,123.43
2018-03-04T02:49:36.117Z,112.37
2018-03-04T02:52:04.392Z,117.20
2018-03-04T02:54:33.575Z,122.45
2018-03-04T02:57:01.067Z,117.40
2018-03-04T02:59:28.537Z,109.18
2018-03-04T03:01:56.028Z,123.35
2018-03-04T03:04:23.828Z,129.98
2018-03-04T03:06:52.088Z,114.18
2018-03-04T03:09:19.558Z,81.05
2018-03-04T03:11:48.067Z,108.10
2018-03-04T03:14:15.539Z,120.85
2018-03-04T03:16:43.133Z,54.08
2018-03-04T03:19:11.120Z,113.43
2018-03-04T03:21:39.361Z,134.20
2018-03-04T03:24:06.863Z,111.72
2018-03-04T03:26:34.594Z,108.90
2018-03-04T03:29:02.068Z,77.78
2018-03-04T03:31:29.609Z,109.03
2018-03-04T03:33:57.525Z,67.20
2018-03-04T03:36:25.065Z,117.25
2018-03-04T03:38:52.766Z,110.07
2018-03-04T03:41:20.276Z,118.57
2018-03-04T03:43:48.582Z,108.87
2018-03-04T03:46:16.087Z,105.65
2018-03-04T03:48:43.868Z,116.32
2018-03-04T03:51:12.177Z,101.03
2018-03-04T03:53:39.687Z,102.57
2018-03-04T03:56:07.478Z,82.28
2018-03-04T03:58:35.730Z,72.37
2018-03-04T04:01:03.207Z,113.60
2018-03-04T04:03:31.786Z,95.95
2018-03-04T04:06:00.082Z,78.80
2018-03-04T04:08:27.575Z,108.03
2018-03-04T04:10:55.383Z,72.35
2018-03-04T04:13:23.643Z,93.72
2018-03-04T04:15:51.144Z,104.82
2018-03-04T04:18:18.643Z,77.80
2018-03-04T04:20:46.116Z,105.57
2018-03-04T04:23:13.595Z,79.00
2018-03-04T04:25:41.860Z,84.55
2018-03-04T04:28:09.352Z,106.97
2018-03-04T04:30:36.840Z,127.12
2018-03-04T04:33:04.732Z,82.55
2018-03-04T04:35:32.280Z,117.32
2018-03-04T04:37:59.857Z,84.57
2018-03-04T04:40:27.733Z,74.32
2018-03-04T04:42:55.233Z,73.03
2018-03-04T04:45:22.792Z,120.15
2018-03-04T04:47:50.647Z,84.90
2018-03-04T04:50:18.138Z,56.53
2018-03-04T04:52:45.650Z,111.35
2018-03-04T04:55:13.528Z,93.68
2018-03-04T04:57:41.008Z,119.22
2018-03-04T05:00:08.487Z,97.15
2018-03-04T05:02:36.424Z,119.90
2018-03-04T05:05:03.955Z,99.68
2018-03-04T05:07:32.207Z,128.35
2018-03-04T05:10:00.088Z,120.25
2018-03-04T05:12:28.332Z,114.90
2018-03-04T05:14:55.807Z,123.30
2018-03-04T05:17:23.696Z,56.00
2018-03-04T05:19:51.214Z,111.45
2018-03-04T05:22:18.744Z,116.25
2018-03-04T05:24:46.527Z,52.08
2018-03-04T05:27:14.008Z,112.88
2018-03-04T05:29:41.475Z,123.38
2018-03-04T05:32:10.491Z,121.55
2018-03-04T05:34:38.001Z,112.55
2018-03-04T05:37:05.501Z,98.65
2018-03-04T05:39:33.399Z,96.63
2018-03-04T05:42:00.965Z,79.60
2018-03-04T05:44:28.432Z,86.87
2018-03-04T05:46:55.920Z,38.08
2018-03-04T05:49:23.387Z,137.45
2018-03-04T05:51:51.676Z,101.53
2018-03-04T05:54:19.527Z,103.47
2018-03-04T05:56:47.804Z,105.75
2018-03-04T05:59:16.046Z,114.22
2018-03-04T06:01:43.980Z,64.05
2018-03-04T06:04:11.467Z,104.45
2018-03-04T06:06:39.000Z,103.07
2018-03-04T06:09:06.830Z,117.37
2018-03-04T06:11:35.141Z,95.47
2018-03-04T06:14:02.652Z,96.63
2018-03-04T06:16:30.942Z,98.07
2018-03-04T06:18:58.411Z,64.07
2018-03-04T06:21:26.640Z,119.05
2018-03-04T06:23:54.425Z,118.93
2018-03-04T06:26:21.888Z,123.82
2018-03-04T06:28:49.403Z,108.87
2018-03-04T06:31:17.825Z,110.70
2018-03-04T06:33:46.076Z,115.55
2018-03-04T06:36:13.561Z,130.32
2018-03-04T06:38:41.819Z,113.03
2018-03-04T06:41:10.150Z,103.47
2018-03-04T06:43:37.667Z,108.30
2018-03-04T06:46:06.204Z,124.38
2018-03-04T06:48:33.676Z,51.58
2018-03-04T06:51:01.182Z,119.82
2018-03-04T06:53:28.924Z,81.63
2018-03-04T06:55:57.179Z,121.90
2018-03-04T06:58:24.910Z,123.97
2018-03-04T07:00:52.732Z,116.43
2018-03-04T07:03:21.227Z,104.20
2018-03-04T07:05:48.718Z,116.25
2018-03-04T07:08:16.581Z,108.12
2018-03-04T07:10:44.141Z,110.97
2018-03-04T07:13:11.652Z,83.28
2018-03-04T07:15:40.198Z,91.78
2018-03-04T07:18:07.776Z,110.85
2018-03-04T07:20:35.263Z,110.12
2018-03-04T07:23:03.549Z,97.53
2018-03-04T07:25:31.057Z,109.72
2018-03-04T07:27:58.533Z,117.78
2018-03-04T07:30:26.438Z,109.15
2018-03-04T07:32:53.958Z,103.60
2018-03-04T07:35:21.467Z,90.62
2018-03-04T07:37:49.021Z,97.60
2018-03-04T07:40:16.529Z,63.60
2018-03-04T07:42:44.042Z,90.22
2018-03-04T07:45:11.879Z,92.93
2018-03-04T07:47:43.655Z,90.60
2018-03-04T07:50:12.665Z,114.37
2018-03-04T07:52:40.148Z,60.45
2018-03-04T07:55:07.656Z,86.03
2018-03-04T07:57:35.171Z,109.53
2018-03-04T08:00:02.678Z,95.47
2018-03-04T08:02:31.397Z,103.97
2018-03-04T08:04:59.239Z,85.38
2018-03-04T08:07:26.708Z,63.83
2018-03-04T08:09:54.192Z,87.50
2018-03-04T08:12:21.983Z,102.35
2018-03-04T08:14:50.253Z,94.35
2018-03-04T08:17:17.857Z,71.95
2018-03-04T08:19:45.360Z,70.00
2018-03-04T08:22:12.875Z,81.70
2018-03-04T08:24:40.348Z,70.03
2018-03-04T08:40:41.531Z,68.90
2018-03-04T08:43:09.018Z,78.32
2018-03-04T08:45:36.517Z,69.90
2018-03-04T08:48:04.015Z,59.22
2018-03-04T08:50:31.537Z,63.55
2018-03-04T08:52:59.031Z,64.25
2018-03-04T08:55:26.613Z,53.30
2018-03-04T08:57:54.195Z,62.33
2018-03-04T09:00:21.695Z,67.32
2018-03-04T09:02:50.050Z,52.45
2018-03-04T09:05:17.600Z,62.60
2018-03-04T09:07:45.194Z,60.17
2018-03-04T09:10:13.533Z,51.40
2018-03-04T09:12:41.198Z,57.58
2018-03-04T09:15:08.680Z,57.95
2018-03-04T09:17:37.102Z,55.47
2018-03-04T09:20:04.624Z,35.58
2018-03-04T09:22:32.889Z,50.05
2018-03-04T09:25:00.389Z,46.15
2018-03-04T09:27:27.874Z,49.70
2018-03-04T09:29:55.360Z,58.03
2018-03-04T09:32:23.945Z,45.90
2018-03-04T09:34:51.414Z,55.17
2018-03-04T09:37:19.661Z,54.15
2018-03-04T09:39:47.398Z,52.55
2018-03-04T09:42:14.999Z,44.70
2018-03-04T09:44:42.517Z,53.70
2018-03-04T09:47:10.278Z,32.40
2018-03-04T09:49:37.797Z,56.10
2018-03-04T09:52:05.287Z,43.15
2018-03-04T09:54:33.232Z,54.40
2018-03-04T09:57:00.724Z,53.45
2018-03-04T09:59:28.396Z,49.15
2018-03-04T10:01:56.752Z,57.40
2018-03-04T10:04:24.296Z,53.38
2018-03-04T10:06:51.822Z,55.10
2018-03-04T10:09:20.108Z,57.72
2018-03-04T10:11:47.593Z,53.90
2018-03-04T10:14:15.063Z,46.85
2018-03-04T10:16:42.548Z,45.20
2018-03-04T10:19:10.115Z,51.17
2018-03-04T10:21:38.404Z,40.90
2018-03-04T10:24:05.888Z,37.33
2018-03-04T10:26:33.376Z,57.72
2018-03-04T10:29:00.909Z,46.17
2018-03-04T10:31:28.527Z,54.03
2018-03-04T10:33:55.984Z,48.35
2018-03-04T10:36:23.463Z,48.17
2018-03-04T10:38:52.251Z,46.10
2018-03-04T10:41:19.759Z,39.63
2018-03-04T10:43:47.254Z,45.12
2018-03-04T10:46:15.551Z,48.58
2018-03-04T10:48:43.048Z,40.80
2018-03-04T10:51:10.597Z,41.20
2018-03-04T10:53:38.123Z,43.33
2018-03-04T10:56:06.408Z,34.03
2018-03-04T10:58:33.930Z,47.25
2018-03-04T11:01:06.977Z,38.10
2018-03-04T11:03:34.487Z,39.25
2018-03-04T11:06:02.053Z,41.20
2018-03-04T11:08:30.332Z,40.58
2018-03-04T11:10:57.883Z,34.78
2018-03-04T11:13:25.392Z,37.83
2018-03-04T11:15:53.157Z,43.10
2018-03-04T11:18:20.649Z,45.33
2018-03-04T11:20:48.237Z,43.05
2018-03-04T11:23:16.849Z,45.10
2018-03-04T11:25:44.412Z,43.78
2018-03-04T11:28:11.903Z,41.03
2018-03-04T11:30:39.451Z,45.78
2018-03-04T11:33:07.580Z,37.45
2018-03-04T11:35:35.932Z,42.42
2018-03-04T11:38:04.289Z,43.42
2018-03-04T11:40:31.847Z,30.27
2018-03-04T11:42:59.333Z,32.05
2018-03-04T11:45:27.654Z,39.60
2018-03-04T11:47:55.214Z,37.38
2018-03-04T11:50:22.679Z,42.30
2018-03-04T11:52:50.180Z,34.25
2018-03-04T11:55:18.431Z,41.30
2018-03-04T11:57:45.931Z,37.60
2018-03-04T12:00:13.515Z,33.85
2018-03-04T12:02:41.002Z,31.83
2018-03-04T12:05:08.490Z,38.80
2018-03-04T12:07:36.740Z,35.83
2018-03-04T12:10:04.263Z,30.50
2018-03-04T12:12:31.780Z,37.80
2018-03-04T12:15:00.153Z,35.50
2018-03-04T12:17:28.407Z,36.50
2018-03-04T12:19:55.916Z,35.00
2018-03-04T12:22:23.415Z,33.55
2018-03-04T12:24:50.910Z,35.08
2018-03-04T12:27:19.160Z,36.90
2018-03-04T12:29:46.665Z,35.42
2018-03-04T12:32:14.159Z,35.85
2018-03-04T12:34:41.694Z,35.00
2018-03-04T12:37:09.176Z,30.60
2018-03-04T12:39:36.832Z,35.28
2018-03-04T12:42:04.330Z,32.95
2018-03-04T12:44:31.932Z,29.10
2018-03-04T12:46:59.524Z,32.67
2018-03-04T12:49:27.022Z,34.40
2018-03-04T12:51:55.289Z,26.05
2018-03-04T12:54:22.862Z,21.90
2018-03-04T12:56:50.361Z,27.85
2018-03-04T12:59:18.316Z,23.02
2018-03-04T13:01:45.875Z,25.33
2018-03-04T13:04:13.408Z,19.90
2018-03-04T13:06:40.960Z,29.37
2018-03-04T13:09:08.437Z,31.80
2018-03-04T13:11:35.931Z,29.17
2018-03-04T13:14:03.433Z,24.30
2018-03-04T13:16:30.947Z,28.92
2018-03-04T13:18:58.455Z,23.67
2018-03-04T13:21:25.946Z,32.60
2018-03-04T13:23:53.470Z,24.85
2018-03-04T13:26:21.051Z,30.73
2018-03-04T13:28:48.576Z,26.48
2018-03-04T13:31:16.042Z,28.08
2018-03-04T13:33:44.074Z,28.85
2018-03-04T13:36:11.890Z,25.98
2018-03-04T13:38:39.386Z,25.25
2018-03-04T13:41:06.879Z,27.10
2018-03-04T13:43:35.136Z,29.87
2018-03-04T13:46:02.632Z,34.05
2018-03-04T13:48:30.153Z,29.75
2018-03-04T13:50:57.774Z,30.20
2018-03-04T13:53:25.247Z,28.85
2018-03-04T13:55:52.737Z,28.77
2018-03-04T13:58:20.632Z,32.55
2018-03-04T14:00:48.184Z,22.58
2018-03-04T14:03:16.717Z,30.58
2018-03-04T14:05:44.530Z,33.05
2018-03-04T14:08:12.139Z,35.95
2018-03-04T14:10:39.630Z,30.83
2018-03-04T14:13:07.145Z,35.05
2018-03-04T14:15:34.689Z,26.35
2018-03-04T14:18:02.212Z,23.95
2018-03-04T14:20:30.788Z,30.35
2018-03-04T14:22:59.042Z,27.65
2018-03-04T14:25:26.526Z,31.95
2018-03-04T14:27:54.796Z,31.62
2018-03-04T14:30:23.047Z,30.65
2018-03-04T14:32:50.533Z,28.42
2018-03-04T14:35:18.837Z,28.65
2018-03-04T14:37:46.352Z,35.00
2018-03-04T14:40:15.376Z,26.60
2018-03-04T14:42:43.643Z,28.95
2018-03-04T14:45:11.900Z,25.30
2018-03-04T14:47:39.385Z,35.25
2018-03-04T14:50:06.884Z,30.42
2018-03-04T14:52:34.370Z,29.45
2018-03-04T14:55:01.847Z,35.35
2018-03-04T14:57:30.476Z,24.45
2018-03-04T14:59:57.988Z,30.25
2018-03-04T15:02:26.239Z,31.52
2018-03-04T15:04:54.150Z,27.52
2018-03-04T15:07:22.761Z,28.05
2018-03-04T15:09:50.269Z,31.23
2018-03-04T15:12:17.793Z,30.08
2018-03-04T15:14:45.404Z,33.17
2018-03-04T15:17:13.647Z,27.37
2018-03-04T15:19:41.148Z,27.75
2018-03-04T15:22:08.624Z,19.10
2018-03-04T15:24:36.180Z,34.00
2018-03-04T15:27:03.684Z,27.25
2018-03-04T15:29:31.164Z,31.17
2018-03-04T15:31:58.688Z,25.05
2018-03-04T15:34:26.219Z,28.42
2018-03-04T15:36:53.688Z,19.20
2018-03-04T15:39:21.975Z,30.08
2018-03-04T15:41:49.665Z,22.10
2018-03-04T15:44:17.234Z,28.48
2018-03-04T15:46:45.486Z,29.85
2018-03-04T15:49:13.016Z,27.13
2018-03-04T15:51:40.508Z,31.58
2018-03-04T15:54:08.038Z,24.42
2018-03-04T15:56:36.740Z,27.80
2018-03-04T15:59:07.193Z,32.63
2018-03-04T16:01:34.677Z,34.67
2018-03-04T16:04:02.549Z,28.98
2018-03-04T16:06:30.024Z,28.70
2018-03-04T16:08:57.495Z,29.25
2018-03-04T16:11:25.279Z,25.08
2018-03-04T16:13:52.746Z,27.17
2018-03-04T16:16:20.983Z,26.08
2018-03-04T16:18:48.475Z,25.33
2018-03-04T16:21:16.729Z,23.80
2018-03-04T16:23:44.256Z,28.20
2018-03-04T16:26:11.795Z,26.65
2018-03-04T16:28:39.283Z,27.80
2018-03-04T16:31:06.759Z,32.38
2018-03-04T16:33:34.239Z,30.40
2018-03-04T16:36:02.571Z,30.25
2018-03-04T16:38:30.121Z,29.87
2018-03-04T16:40:57.627Z,28.73
2018-03-04T16:43:25.134Z,33.58
2018-03-04T16:45:52.629Z,32.72
2018-03-04T16:48:20.114Z,25.88
2018-03-04T16:50:47.604Z,25.60
2018-03-04T16:53:15.115Z,31.15
2018-03-04T16:55:44.903Z,31.67
2018-03-04T16:58:12.468Z,32.90
2018-03-04T17:00:40.743Z,30.85
2018-03-04T17:03:08.229Z,27.55
2018-03-04T17:05:36.514Z,31.37
2018-03-04T17:08:04.014Z,26.92
2018-03-04T17:10:31.580Z,32.80
2018-03-04T17:12:59.066Z,33.85
2018-03-04T17:15:26.552Z,34.47
2018-03-04T17:17:54.420Z,29.45
2018-03-04T17:20:21.930Z,30.05
2018-03-04T17:22:49.428Z,28.50
2018-03-04T17:25:18.116Z,31.02
2018-03-04T17:27:45.597Z,29.27
2018-03-04T17:30:13.080Z,29.80
2018-03-04T17:32:40.609Z,24.95
2018-03-04T17:35:08.131Z,38.90
2018-03-04T17:37:35.706Z,35.30
2018-03-04T17:40:03.170Z,33.88
2018-03-04T17:42:30.752Z,35.53
2018-03-04T17:44:58.269Z,35.05
2018-03-04T17:47:26.540Z,31.77
2018-03-04T17:49:54.860Z,38.50
2018-03-04T17:52:22.372Z,36.67
2018-03-04T17:54:50.649Z,33.33
2018-03-04T17:57:18.124Z,37.28
2018-03-04T17:59:45.616Z,35.13
2018-03-04T18:02:13.487Z,30.00
2018-03-04T18:04:41.012Z,35.42
2018-03-04T18:07:08.496Z,32.17
2018-03-04T18:09:35.996Z,41.15
2018-03-04T18:12:03.530Z,34.45
2018-03-04T18:14:31.027Z,34.38
2018-03-04T18:16:58.903Z,34.55
2018-03-04T18:19:26.403Z,38.28
2018-03-04T18:21:53.920Z,33.17
2018-03-04T18:24:22.209Z,40.47
2018-03-04T18:26:49.900Z,36.92
2018-03-04T18:29:17.399Z,37.55
2018-03-04T18:31:45.192Z,33.15
2018-03-04T18:34:12.719Z,41.03
2018-03-04T18:36:40.973Z,38.22
2018-03-04T18:39:08.464Z,43.13
2018-03-04T18:41:36.727Z,42.88
2018-03-04T18:44:04.998Z,39.47
2018-03-04T18:46:33.633Z,40.75
2018-03-04T18:49:01.265Z,40.70
2018-03-04T18:51:29.668Z,48.60
2018-03-04T18:53:57.620Z,42.58
2018-03-04T18:56:25.122Z,45.10
2018-03-04T18:58:52.677Z,36.85
2018-03-04T19:01:20.194Z,45.72
2018-03-04T19:03:47.771Z,44.33
2018-03-04T19:06:15.270Z,46.92
2018-03-04T19:08:42.768Z,41.58
2018-03-04T19:11:11.032Z,46.28
2018-03-04T19:13:39.345Z,41.30
2018-03-04T19:16:06.867Z,42.47
2018-03-04T19:18:35.096Z,41.03
2018-03-04T19:21:02.622Z,44.65
2018-03-04T19:23:30.144Z,47.47
2018-03-04T19:25:57.612Z,42.83
2018-03-04T19:28:25.925Z,41.15
2018-03-04T19:30:53.896Z,46.25
2018-03-04T19:33:21.371Z,39.50
2018-03-04T19:35:48.846Z,41.05
2018-03-04T19:38:16.329Z,44.40
2018-03-04T19:40:43.836Z,43.33
2018-03-04T19:43:11.414Z,45.12
2018-03-04T19:45:39.007Z,40.60
2018-03-04T19:48:07.462Z,45.33
2018-03-04T19:50:35.109Z,43.17
2018-03-04T19:53:02.668Z,46.72
2018-03-04T19:55:30.144Z,53.20
2018-03-04T19:57:57.667Z,50.08
2018-03-04T20:00:25.193Z,45.88
2018-03-04T20:02:53.516Z,51.67
2018-03-04T20:05:21.024Z,47.92
2018-03-04T20:07:48.923Z,44.03
2018-03-04T20:10:16.482Z,43.70
2018-03-04T20:12:43.959Z,48.50
2018-03-04T20:15:13.342Z,50.30
2018-03-04T20:17:40.898Z,48.97
2018-03-04T20:20:08.585Z,49.50
2018-03-04T20:22:36.084Z,47.85
2018-03-04T20:25:04.324Z,46.37
2018-03-04T20:27:31.808Z,45.53
2018-03-04T20:30:00.067Z,40.42
2018-03-04T20:32:27.564Z,43.45
2018-03-04T20:34:55.069Z,48.53
2018-03-04T20:37:22.595Z,42.80
2018-03-04T20:39:50.104Z,42.17
2018-03-04T20:42:18.380Z,43.17
2018-03-04T20:44:45.882Z,41.10
2018-03-04T20:47:13.411Z,31.75
2018-03-04T20:49:41.657Z,40.42
2018-03-04T20:52:09.200Z,33.28
2018-03-04T20:54:36.771Z,40.83
2018-03-04T20:57:04.324Z,35.20
2018-03-04T20:59:32.255Z,40.80
2018-03-04T21:01:59.790Z,44.85
2018-03-04T21:04:28.149Z,35.90
2018-03-04T21:06:56.072Z,46.40
2018-03-04T21:09:23.633Z,38.28
2018-03-04T21:11:51.135Z,49.80
2018-03-04T21:14:19.019Z,41.15
2018-03-04T21:16:47.374Z,39.80
2018-03-04T21:19:14.924Z,49.47
2018-03-04T21:21:42.761Z,45.20
2018-03-04T21:24:10.310Z,37.25
2018-03-04T21:26:37.856Z,29.98
2018-03-04T21:29:05.744Z,24.48
2018-03-04T21:31:33.226Z,39.22
2018-03-04T21:34:00.790Z,38.22
2018-03-04T21:36:28.584Z,39.97
2018-03-04T21:38:56.864Z,28.52
2018-03-04T21:41:25.155Z,39.70
2018-03-04T21:43:52.688Z,29.63
2018-03-04T21:46:20.965Z,33.95
2018-03-04T21:48:48.453Z,37.90
2018-03-04T21:51:15.936Z,34.58
2018-03-04T21:53:43.431Z,33.42
2018-03-04T21:56:11.681Z,36.03
2018-03-04T21:58:39.494Z,36.40
2018-03-04T22:01:07.000Z,30.33
2018-03-04T22:03:34.617Z,29.70
2018-03-04T22:06:02.420Z,26.73
2018-03-04T22:08:29.927Z,23.30
2018-03-04T22:10:58.252Z,16.27
2018-03-04T22:13:26.174Z,19.00
2018-03-04T22:15:54.460Z,13.98
2018-03-04T22:18:21.994Z,22.87
2018-03-04T22:20:49.470Z,23.50
2018-03-04T22:23:17.709Z,25.55
2018-03-04T22:25:45.192Z,25.85
2018-03-04T22:28:13.026Z,15.80
2018-03-04T22:30:40.562Z,25.67
2018-03-04T22:33:08.115Z,17.27
2018-03-04T22:35:35.976Z,17.20
2018-03-04T22:38:03.535Z,23.95
2018-03-04T22:40:31.007Z,29.48
2018-03-04T22:42:58.811Z,24.70
2018-03-04T22:45:26.356Z,22.05
2018-03-04T22:47:53.863Z,27.85
2018-03-04T22:50:21.420Z,20.67
2018-03-04T22:52:48.896Z,26.73
2018-03-04T22:55:16.398Z,25.30
2018-03-04T22:57:44.272Z,27.23
2018-03-04T23:00:12.527Z,23.12
2018-03-04T23:02:40.008Z,28.90
2018-03-04T23:05:08.596Z,32.20
2018-03-04T23:07:36.835Z,24.33
2018-03-04T23:10:04.324Z,19.42
2018-03-04T23:12:32.848Z,34.25
2018-03-04T23:15:00.369Z,25.85
2018-03-04T23:17:28.625Z,25.05
2018-03-04T23:19:56.471Z,32.72
2018-03-04T23:22:24.007Z,34.67
2018-03-04T23:24:51.479Z,36.90
2018-03-04T23:27:19.280Z,32.83
2018-03-04T23:30:11.180Z,28.70
2018-03-04T23:33:20.026Z,37.97
2018-03-04T23:35:50.726Z,34.33
2018-03-04T23:38:18.685Z,41.17
2018-03-04T23:40:46.181Z,30.65
2018-03-04T23:43:13.735Z,46.08
2018-03-04T23:45:41.532Z,47.03
2018-03-04T23:48:09.779Z,50.85
2018-03-04T23:50:37.309Z,45.53
2018-03-04T23:53:05.135Z,43.08
2018-03-04T23:55:32.694Z,42.50
2018-03-04T23:58:00.970Z,48.30
